Time;durP1;ratioP1;P1;durP2;ratioP2;P2;SDS_P1;SDS_P2;PMS_P1;PMS_P2;Temp;Humidity;BMP_temperature;BMP_pressure;BME280_temperature;BME280_humidity;BME280_pressure;Samples;Min_cycle;Max_cycle;Signal;HPM_P1;HPM_P2
2023/04/15 00:00:40;;;;;;;17.60;15.67;;;5.80;96.20;;;5.82;81.86;96928.09;5045107;28;20458;-78
2023/04/15 00:03:07;;;;;;;16.73;14.80;;;5.80;96.20;;;5.65;81.91;96907.13;5048450;28;20457;-76
2023/04/15 00:05:35;;;;;;;16.30;14.60;;;5.80;96.60;;;5.98;81.05;96931.34;5049669;28;20543;-75
2023/04/15 00:08:04;;;;;;;13.87;12.47;;;5.80;97.30;;;6.13;80.75;96920.38;5046981;28;21004;-75
2023/04/15 00:10:31;;;;;;;15.07;13.47;;;5.90;96.80;;;5.52;80.63;96854.41;5049958;28;20482;-75
2023/04/15 00:12:58;;;;;;;12.87;11.57;;;5.90;96.00;;;5.96;81.13;96932.38;5048495;28;20439;-75
2023/04/15 00:15:26;;;;;;;16.13;14.10;;;5.80;96.10;;;6.02;81.30;96929.94;5049894;28;20455;-75
2023/04/15 00:17:54;;;;;;;14.00;12.60;;;5.90;96.50;;;6.11;80.18;96917.91;5053142;28;20929;-74
2023/04/15 00:20:22;;;;;;;16.93;14.70;;;6.00;96.10;;;6.00;80.57;96931.97;5048021;28;20525;-74
2023/04/15 00:22:49;;;;;;;16.73;14.27;;;5.90;96.10;;;5.94;80.36;96907.63;5042942;28;20458;-74
2023/04/15 00:25:16;;;;;;;23.10;19.17;;;5.90;96.10;;;6.20;80.72;96919.31;5045712;28;20455;-74
2023/04/15 00:27:44;;;;;;;18.33;15.33;;;5.90;97.10;;;6.16;79.63;96912.75;5045082;28;20459;-74
2023/04/15 00:30:12;;;;;;;19.47;15.10;;;6.00;96.20;;;6.02;80.31;96913.84;5052147;28;20475;-74
2023/04/15 00:32:41;;;;;;;15.83;11.80;;;6.00;95.40;;;5.86;80.73;96907.06;5047865;28;20461;-75
2023/04/15 00:35:09;;;;;;;12.80;11.43;;;5.90;95.30;;;5.81;80.65;96911.19;5062650;28;21020;-74
2023/04/15 00:37:37;;;;;;;12.87;11.50;;;5.90;95.30;;;5.84;80.53;96915.31;5045907;28;20455;-74
2023/04/15 00:40:06;;;;;;;13.93;12.23;;;5.90;95.10;;;6.02;80.18;96903.13;5045510;28;20456;-73
2023/04/15 00:42:36;;;;;;;11.53;10.43;;;5.90;94.90;;;5.80;79.99;96855.94;5050798;28;20464;-72
2023/04/15 00:45:04;;;;;;;12.63;10.53;;;5.90;95.10;;;5.83;80.22;96900.25;5051695;28;20461;-74
2023/04/15 00:47:36;;;;;;;12.43;11.13;;;5.90;94.50;;;5.84;80.59;96899.25;5053889;28;20446;-71
2023/04/15 00:50:03;;;;;;;16.00;12.20;;;5.90;94.60;;;5.83;80.63;96886.84;5054263;28;20474;-72
2023/04/15 00:52:32;;;;;;;14.33;12.83;;;5.90;94.60;;;5.88;80.77;96897.78;5062899;28;20445;-73
2023/04/15 00:55:01;;;;;;;17.07;14.60;;;5.90;94.80;;;6.08;80.51;96899.56;5048249;28;20462;-73
2023/04/15 00:57:29;;;;;;;18.93;14.43;;;5.90;95.40;;;6.16;79.63;96901.16;5046540;28;20453;-73
2023/04/15 00:59:57;;;;;;;15.50;13.10;;;6.10;94.20;;;6.16;79.53;96896.66;5055048;28;20443;-72
2023/04/15 01:02:24;;;;;;;18.70;15.33;;;6.00;94.50;;;5.89;80.68;96885.19;5057532;28;21108;-73
2023/04/15 01:04:52;;;;;;;19.23;14.70;;;5.90;94.40;;;6.04;80.15;96883.06;5053049;28;20447;-73
2023/04/15 01:07:19;;;;;;;12.93;11.73;;;5.90;94.90;;;5.95;80.02;96873.63;5036111;28;20964;-75
2023/04/15 01:09:48;;;;;;;12.23;11.03;;;6.00;95.00;;;5.90;80.88;96886.81;5047009;28;20467;-75
2023/04/15 01:12:17;;;;;;;13.17;9.90;;;5.90;94.60;;;5.51;80.16;96809.91;5047233;28;20447;-75
2023/04/15 01:14:44;;;;;;;11.37;10.20;;;5.90;94.80;;;5.77;80.60;96883.19;5030174;28;20890;-74
2023/04/15 01:17:12;;;;;;;12.73;10.60;;;5.90;94.70;;;5.85;80.51;96883.97;5045734;28;21106;-75
2023/04/15 01:19:39;;;;;;;10.30;9.30;;;5.80;95.00;;;6.01;80.22;96898.75;5048562;28;20448;-75
2023/04/15 01:22:08;;;;;;;11.13;10.03;;;5.90;94.90;;;6.00;79.87;96883.72;5038275;28;20515;-75
2023/04/15 01:24:37;;;;;;;11.03;9.80;;;5.90;94.70;;;5.99;79.93;96885.56;5043467;28;20533;-73
2023/04/15 01:27:06;;;;;;;14.23;12.73;;;5.80;95.00;;;5.99;80.57;96882.88;5054554;28;20456;-74
2023/04/15 01:29:38;;;;;;;14.70;12.80;;;5.80;94.90;;;6.09;80.13;96882.44;5049297;28;20515;-73
2023/04/15 01:32:07;;;;;;;12.63;11.37;;;5.80;95.10;;;6.15;79.49;96873.53;5045347;28;21230;-73
2023/04/15 01:34:34;;;;;;;11.93;10.73;;;5.90;95.00;;;5.75;80.39;96868.34;5046611;28;20480;-73
2023/04/15 01:37:01;;;;;;;12.10;10.90;;;5.80;94.40;;;5.89;80.28;96871.78;5043308;28;20470;-72
2023/04/15 01:39:29;;;;;;;11.47;10.17;;;5.70;95.20;;;5.94;80.03;96870.09;5049339;28;20528;-74
2023/04/15 01:41:56;;;;;;;11.87;10.50;;;5.70;95.70;;;5.63;80.52;96812.72;5044929;28;20466;-72
2023/04/15 01:44:25;;;;;;;10.97;9.80;;;5.80;96.00;;;5.92;80.89;96869.50;5043514;28;20465;-74
2023/04/15 01:46:52;;;;;;;11.20;10.00;;;5.80;95.90;;;6.09;79.59;96869.88;5039784;28;20450;-74
2023/04/15 01:49:19;;;;;;;16.27;12.67;;;5.90;95.60;;;6.19;79.19;96872.06;5046522;28;20484;-75
2023/04/15 01:51:46;;;;;;;22.80;17.37;;;6.00;95.00;;;5.98;79.91;96872.34;5051524;28;20538;-74
2023/04/15 01:54:13;;;;;;;18.63;16.10;;;5.90;94.70;;;5.97;80.15;96868.84;5047060;28;20454;-73
2023/04/15 01:56:41;;;;;;;14.43;12.60;;;5.80;95.30;;;6.13;80.54;96875.59;5034064;28;20554;-74
2023/04/15 01:59:08;;;;;;;16.80;14.20;;;5.90;96.00;;;6.00;80.04;96867.63;5043673;28;20465;-75
2023/04/15 02:01:37;;;;;;;15.13;13.57;;;5.90;95.20;;;6.00;80.46;96860.38;5051845;28;20457;-75
2023/04/15 02:04:04;;;;;;;12.10;10.87;;;5.80;95.60;;;5.92;80.89;96866.81;5050134;28;20450;-74
2023/04/15 02:06:32;;;;;;;13.63;11.00;;;5.80;95.50;;;6.02;80.36;96862.88;5046095;28;20525;-75
2023/04/15 02:08:59;;;;;;;13.37;11.20;;;5.80;95.70;;;5.86;80.58;96838.19;5049987;28;20903;-74
2023/04/15 02:11:26;;;;;;;11.47;9.63;;;5.80;96.30;;;6.22;79.73;96866.28;5043749;28;21217;-75
2023/04/15 02:13:53;;;;;;;10.77;9.67;;;5.80;95.70;;;6.26;78.94;96857.78;5052054;28;21230;-74
2023/04/15 02:16:21;;;;;;;10.47;9.47;;;5.90;96.20;;;6.24;79.01;96866.06;5058116;28;20459;-71
2023/04/15 02:18:50;;;;;;;11.33;10.13;;;5.90;95.30;;;6.16;79.72;96866.31;5064789;28;20455;-75
2023/04/15 02:21:18;;;;;;;15.47;13.40;;;5.80;95.70;;;6.34;78.88;96863.72;5059525;28;20465;-74
2023/04/15 02:23:47;;;;;;;19.43;14.53;;;5.90;95.70;;;6.27;79.51;96862.09;5051920;28;20455;-75
2023/04/15 02:26:14;;;;;;;22.17;16.30;;;5.90;94.90;;;6.31;79.50;96863.34;5033185;28;20558;-76
2023/04/15 02:28:42;;;;;;;20.60;15.83;;;5.90;95.70;;;6.28;78.86;96855.69;5052824;28;20459;-76
2023/04/15 02:31:09;;;;;;;18.03;15.50;;;5.80;95.80;;;6.35;79.16;96872.59;5052279;28;20558;-77
2023/04/15 02:33:36;;;;;;;15.67;13.20;;;5.90;95.90;;;6.41;78.90;96862.84;5044300;28;21107;-76
2023/04/15 02:36:06;;;;;;;12.90;11.23;;;5.90;95.70;;;6.38;78.70;96866.78;5048631;28;20531;-76
2023/04/15 02:38:33;;;;;;;14.30;12.23;;;6.00;95.00;;;6.40;78.15;96856.66;5047914;28;20577;-76
2023/04/15 02:41:01;;;;;;;12.63;9.87;;;6.00;94.60;;;6.40;78.75;96864.72;5059591;28;20455;-74
2023/04/15 02:43:28;;;;;;;12.30;10.87;;;6.00;95.30;;;6.21;79.24;96870.00;5049712;28;20454;-74
2023/04/15 02:45:55;;;;;;;12.50;10.90;;;5.90;94.90;;;6.21;79.71;96866.47;5056500;28;20450;-74
2023/04/15 02:48:22;;;;;;;10.90;9.80;;;5.80;96.20;;;6.39;78.82;96868.44;5037663;28;20501;-74
2023/04/15 02:50:50;;;;;;;10.00;9.10;;;5.90;96.20;;;6.29;78.78;96836.72;5050907;28;20488;-74
2023/04/15 02:53:18;;;;;;;9.70;8.77;;;6.00;95.40;;;6.49;78.47;96866.09;5048837;28;20533;-75
2023/04/15 02:55:46;;;;;;;10.83;8.83;;;6.00;95.70;;;6.33;78.98;96874.69;5049736;28;20943;-73
2023/04/15 02:58:13;;;;;;;10.40;9.40;;;5.90;95.00;;;6.14;80.38;96861.19;5043260;28;20534;-73
2023/04/15 03:00:41;;;;;;;10.87;9.87;;;5.80;95.80;;;6.07;80.44;96863.06;5042271;28;20440;-74
2023/04/15 03:03:09;;;;;;;9.40;8.50;;;5.70;96.80;;;6.28;80.17;96872.63;5065701;28;20457;-73
2023/04/15 03:05:38;;;;;;;9.90;9.00;;;5.90;97.90;;;6.28;79.28;96861.06;5052938;28;20455;-72
2023/04/15 03:08:05;;;;;;;9.90;8.90;;;5.90;96.40;;;6.13;79.58;96859.50;5047872;28;20536;-72
2023/04/15 03:10:33;;;;;;;10.90;9.80;;;5.80;96.30;;;6.24;80.34;96866.88;5049213;28;20528;-74
2023/04/15 03:13:01;;;;;;;11.23;10.10;;;5.80;97.20;;;6.20;79.83;96864.84;5043277;28;20447;-74
2023/04/15 03:15:28;;;;;;;10.80;9.77;;;5.80;97.30;;;6.19;80.14;96861.34;5044064;28;20502;-75
2023/04/15 03:17:55;;;;;;;10.20;9.20;;;5.80;96.90;;;6.07;80.55;96865.75;5036656;28;20445;-73
2023/04/15 03:20:23;;;;;;;10.57;9.47;;;5.80;96.60;;;5.98;80.82;96841.00;5042344;28;20460;-74
2023/04/15 03:22:50;;;;;;;12.23;9.70;;;5.80;97.00;;;6.08;80.43;96862.00;5041118;28;20947;-73
2023/04/15 03:25:18;;;;;;;9.77;8.87;;;5.80;96.90;;;6.13;80.06;96864.88;5045422;28;20456;-74
2023/04/15 03:27:46;;;;;;;9.07;8.17;;;5.80;97.10;;;5.90;81.05;96851.97;5045243;28;20518;-73
2023/04/15 03:30:14;;;;;;;9.13;8.03;;;5.80;96.50;;;5.97;80.86;96855.44;5045584;28;20453;-74
2023/04/15 03:32:41;;;;;;;9.73;8.83;;;5.80;96.50;;;5.96;81.60;96857.28;5056442;28;20839;-75
2023/04/15 03:35:09;;;;;;;9.10;8.20;;;5.80;96.60;;;6.02;80.36;96852.16;5050326;28;20464;-76
2023/04/15 03:37:36;;;;;;;9.77;8.23;;;5.90;96.70;;;6.07;80.71;96863.06;5046351;28;20461;-75
2023/04/15 03:40:04;;;;;;;8.87;8.00;;;5.90;96.70;;;5.96;80.72;96862.66;5045276;28;20949;-74
2023/04/15 03:42:31;;;;;;;10.30;7.93;;;5.80;96.30;;;6.05;80.99;96857.91;5049438;28;20454;-72
2023/04/15 03:45:00;;;;;;;9.17;8.30;;;5.80;96.50;;;6.20;80.08;96849.56;5048381;28;20446;-73
2023/04/15 03:47:27;;;;;;;11.80;9.57;;;5.90;96.00;;;6.03;80.27;96848.44;5044531;28;21127;-73
2023/04/15 03:49:55;;;;;;;8.83;7.60;;;5.90;95.80;;;6.08;80.54;96853.97;5055872;28;20451;-73
2023/04/15 03:52:22;;;;;;;10.60;8.13;;;5.90;96.20;;;6.11;80.63;96858.91;5047247;28;20475;-75
2023/04/15 03:54:49;;;;;;;8.53;7.73;;;5.90;96.20;;;6.14;80.50;96845.09;5040292;28;21083;-74
2023/04/15 03:57:16;;;;;;;8.70;7.80;;;5.90;96.50;;;6.07;80.64;96861.22;5045468;28;20453;-74
2023/04/15 03:59:43;;;;;;;8.20;7.50;;;5.90;96.10;;;6.03;80.67;96843.88;5048750;28;20443;-73
2023/04/15 04:02:12;;;;;;;8.47;7.63;;;5.90;96.20;;;6.27;79.90;96851.38;5057435;28;20450;-74
2023/04/15 04:04:39;;;;;;;9.43;8.53;;;5.90;96.30;;;5.73;79.73;96792.69;5059133;28;20458;-73
2023/04/15 04:07:06;;;;;;;8.20;7.40;;;6.00;95.90;;;6.06;80.91;96864.09;5058252;28;20459;-74
2023/04/15 04:09:34;;;;;;;13.57;8.33;;;5.90;95.80;;;6.07;80.74;96855.84;5063925;28;20446;-74
2023/04/15 04:12:01;;;;;;;8.90;8.00;;;5.90;96.00;;;6.07;80.76;96857.69;5057649;28;20496;-72
2023/04/15 04:14:29;;;;;;;8.17;7.37;;;5.90;96.10;;;6.14;80.22;96861.19;5057144;28;20460;-73
2023/04/15 04:16:56;;;;;;;12.63;9.13;;;5.90;96.10;;;5.99;81.24;96865.94;5061005;28;20477;-71
2023/04/15 04:19:25;;;;;;;9.27;8.27;;;5.90;95.90;;;6.19;80.24;96857.81;5047768;28;20450;-74
2023/04/15 04:21:52;;;;;;;9.83;8.90;;;6.00;95.70;;;6.28;79.75;96861.91;5045534;28;20450;-74
2023/04/15 04:24:20;;;;;;;10.83;9.43;;;6.10;95.30;;;6.14;80.52;96868.38;5046661;28;20456;-74
2023/04/15 04:26:47;;;;;;;10.30;9.30;;;6.00;94.70;;;6.10;79.91;96854.56;5060942;28;20455;-74
2023/04/15 04:29:15;;;;;;;10.63;9.53;;;6.00;95.00;;;6.13;79.46;96856.81;5045258;28;20492;-74
2023/04/15 04:31:42;;;;;;;10.40;9.30;;;6.00;94.80;;;6.15;79.52;96862.81;5048082;28;20472;-75
2023/04/15 04:34:09;;;;;;;10.50;9.13;;;6.00;94.60;;;6.09;79.39;96860.97;5040949;28;20456;-73
2023/04/15 04:36:38;;;;;;;11.13;9.90;;;6.00;94.30;;;6.34;79.40;96870.94;5042631;28;20522;-76
2023/04/15 04:39:06;;;;;;;10.77;9.77;;;6.00;94.60;;;6.11;79.89;96874.19;5038674;28;20444;-75
2023/04/15 04:41:33;;;;;;;11.00;9.80;;;6.00;94.30;;;5.95;80.13;96873.63;5043394;28;20469;-75
2023/04/15 04:44:00;;;;;;;10.70;9.60;;;6.00;94.30;;;6.07;80.59;96873.78;5046853;28;20462;-72
2023/04/15 04:46:28;;;;;;;12.60;10.43;;;6.00;94.50;;;6.20;79.65;96876.41;5041177;28;20504;-73
2023/04/15 04:48:55;;;;;;;10.73;9.73;;;6.00;94.80;;;6.14;79.73;96869.22;5042627;28;20440;-73
2023/04/15 04:51:22;;;;;;;11.33;9.10;;;6.10;94.40;;;6.06;80.08;96872.94;5042224;28;20487;-72
2023/04/15 04:53:51;;;;;;;14.70;10.40;;;6.00;94.10;;;6.31;79.51;96874.06;5068955;28;20455;-76
2023/04/15 04:56:18;;;;;;;11.53;10.33;;;6.10;94.50;;;6.36;78.57;96858.13;5037904;28;20463;-75
2023/04/15 04:58:46;;;;;;;10.50;9.40;;;6.20;93.80;;;6.47;79.26;96870.88;5039786;28;20455;-74
2023/04/15 05:01:13;;;;;;;10.97;9.87;;;6.20;93.80;;;6.25;78.98;96856.97;5036990;28;20472;-75
2023/04/15 05:03:41;;;;;;;10.83;9.73;;;6.20;93.20;;;6.24;79.67;96874.91;5041351;28;20466;-74
2023/04/15 05:06:08;;;;;;;9.67;8.77;;;6.20;93.30;;;6.32;79.27;96864.97;5040624;28;20523;-73
2023/04/15 05:08:35;;;;;;;10.57;9.20;;;6.20;93.50;;;6.26;79.85;96877.41;5042078;28;20455;-75
2023/04/15 05:11:04;;;;;;;11.13;10.03;;;6.20;93.70;;;6.35;79.36;96878.75;5049048;28;20479;-73
2023/04/15 05:13:31;;;;;;;12.03;9.80;;;6.20;93.90;;;6.08;79.00;96840.56;5040214;28;20549;-75
2023/04/15 05:15:58;;;;;;;10.17;9.07;;;6.20;93.30;;;5.77;79.01;96785.84;5044193;28;21015;-75
2023/04/15 05:18:25;;;;;;;11.10;8.80;;;6.20;93.50;;;6.39;78.43;96871.13;5038998;28;21004;-75
2023/04/15 05:20:53;;;;;;;10.50;9.47;;;6.30;93.30;;;6.38;78.49;96866.78;5044841;28;20456;-74
2023/04/15 05:23:22;;;;;;;11.30;9.60;;;6.30;93.10;;;6.57;78.48;96874.91;5049375;28;20462;-74
2023/04/15 05:25:49;;;;;;;9.60;8.70;;;6.40;93.30;;;6.47;77.35;96819.03;5041875;28;20523;-73
2023/04/15 05:28:18;;;;;;;12.27;9.50;;;6.50;92.80;;;6.84;77.51;96880.06;5032576;28;20474;-74
2023/04/15 05:30:45;;;;;;;9.77;8.33;;;6.60;92.50;;;6.78;77.24;96879.94;5042083;28;20452;-74
2023/04/15 05:33:12;;;;;;;10.63;9.53;;;6.60;92.10;;;6.42;77.26;96808.16;5035767;28;20525;-77
2023/04/15 05:35:40;;;;;;;10.33;9.23;;;6.60;92.20;;;6.83;77.13;96878.44;5047397;28;20461;-76
2023/04/15 05:38:07;;;;;;;11.03;10.00;;;6.70;91.90;;;6.99;76.21;96888.63;5041506;28;20999;-74
2023/04/15 05:40:34;;;;;;;10.20;9.10;;;6.70;91.70;;;7.08;76.20;96887.31;5042375;28;20448;-75
2023/04/15 05:43:01;;;;;;;10.30;9.40;;;6.80;91.40;;;6.38;76.53;96823.88;5044336;28;20464;-75
2023/04/15 05:45:30;;;;;;;10.93;9.83;;;6.80;91.10;;;6.95;76.42;96898.16;5048407;28;20515;-75
2023/04/15 05:47:58;;;;;;;9.80;8.90;;;6.80;90.80;;;6.91;76.40;96892.41;5045222;28;20457;-73
2023/04/15 05:50:25;;;;;;;10.50;9.40;;;6.80;91.00;;;7.13;75.26;96885.81;5070574;28;20501;-75
2023/04/15 05:52:52;;;;;;;10.30;9.03;;;6.90;91.00;;;7.20;75.25;96884.72;5047816;28;20590;-76
2023/04/15 05:55:20;;;;;;;9.80;8.80;;;7.00;90.70;;;7.19;75.29;96895.66;5047097;28;20449;-74
2023/04/15 05:57:48;;;;;;;9.33;8.50;;;7.00;90.50;;;7.08;75.97;96898.06;5037439;28;20456;-72
2023/04/15 06:00:16;;;;;;;10.10;9.00;;;6.90;90.50;;;7.07;75.57;96885.66;5046825;28;20448;-73
2023/04/15 06:02:45;;;;;;;9.90;8.90;;;6.90;90.70;;;7.09;75.62;96898.88;5048039;28;20499;-73
2023/04/15 06:05:12;;;;;;;10.40;9.30;;;6.90;90.50;;;7.39;75.33;96897.34;5043066;28;21264;-73
2023/04/15 06:07:40;;;;;;;9.63;8.73;;;7.00;90.80;;;7.27;75.64;96903.47;5045490;28;20456;-74
2023/04/15 06:10:09;;;;;;;10.13;9.13;;;7.00;90.40;;;7.10;75.33;96900.50;5043928;28;20461;-73
2023/04/15 06:12:36;;;;;;;10.57;9.50;;;7.00;90.40;;;6.92;75.85;96882.50;5059228;28;20475;-72
2023/04/15 06:15:05;;;;;;;9.50;8.60;;;6.90;90.60;;;7.25;75.94;96900.19;5047694;28;20519;-77
2023/04/15 06:17:32;;;;;;;10.40;8.97;;;7.00;91.30;;;7.35;75.01;96911.25;5047283;28;20769;-77
2023/04/15 06:20:01;;;;;;;9.83;8.93;;;7.10;90.30;;;7.60;75.06;96904.16;5075599;28;20437;-77
2023/04/15 06:22:28;;;;;;;10.80;9.80;;;7.30;90.50;;;7.46;74.51;96903.47;5052583;28;20451;-78
2023/04/15 06:24:55;;;;;;;9.50;8.47;;;7.20;89.90;;;7.63;74.12;96904.53;5062806;28;20444;-73
2023/04/15 06:27:22;;;;;;;10.40;9.37;;;7.30;90.00;;;7.81;73.59;96900.22;5087603;28;20452;-75
2023/04/15 06:29:49;;;;;;;9.77;8.90;;;7.50;89.60;;;7.89;73.63;96901.78;5065759;28;20452;-73
2023/04/15 06:32:17;;;;;;;11.33;10.27;;;7.60;89.10;;;7.81;73.50;96905.59;5069481;28;20460;-73
2023/04/15 06:34:44;;;;;;;9.17;8.27;;;7.50;88.40;;;7.86;73.45;96907.59;5069895;28;20442;-77
2023/04/15 06:37:15;;;;;;;10.33;9.37;;;7.60;88.10;;;7.90;73.33;96912.28;5065556;28;20478;-76
2023/04/15 06:39:43;;;;;;;12.03;10.83;;;7.70;88.10;;;7.90;73.63;96906.91;5084245;28;20462;-78
2023/04/15 06:42:11;;;;;;;10.43;9.43;;;7.70;87.50;;;8.07;73.28;96908.97;5058770;28;20459;-75
2023/04/15 06:44:38;;;;;;;11.30;9.40;;;7.80;88.50;;;7.97;72.92;96903.34;5056256;28;20459;-82
2023/04/15 06:47:06;;;;;;;12.30;10.40;;;7.80;87.50;;;7.86;73.43;96907.59;5035848;28;20477;-68
2023/04/15 06:49:33;;;;;;;10.60;9.43;;;7.70;87.50;;;7.78;73.53;96912.22;5040157;28;20525;-72
2023/04/15 06:52:01;;;;;;;11.93;10.60;;;7.60;87.80;;;7.84;73.70;96905.13;5037597;28;21002;-74
2023/04/15 06:54:29;;;;;;;12.03;10.80;;;7.60;88.50;;;7.98;74.81;96907.66;5033873;28;20567;-74
2023/04/15 06:56:56;;;;;;;12.07;10.87;;;7.70;90.10;;;8.17;73.99;96892.28;5035279;28;21254;-71
2023/04/15 06:59:24;;;;;;;13.53;12.13;;;7.80;90.60;;;8.20;74.73;96902.63;5028852;28;20936;-73
2023/04/15 07:01:51;;;;;;;10.77;9.67;;;7.90;90.10;;;8.20;74.04;96902.63;5037627;28;20830;-71
2023/04/15 07:04:19;;;;;;;10.10;9.10;;;7.80;89.10;;;8.25;73.43;96900.06;5032986;28;20448;-73
2023/04/15 07:06:46;;;;;;;11.80;9.83;;;8.00;89.50;;;8.19;73.97;96899.09;5046790;28;20459;-72
2023/04/15 07:09:14;;;;;;;11.90;10.67;;;8.00;88.50;;;8.60;73.44;96907.47;5037545;28;20504;-74
2023/04/15 07:11:42;;;;;;;11.03;9.83;;;8.20;90.10;;;8.49;72.76;96895.59;5043415;28;20557;-73
2023/04/15 07:14:09;;;;;;;11.73;10.33;;;8.30;88.20;;;8.70;73.06;96904.19;5037932;28;20467;-74
2023/04/15 07:16:37;;;;;;;11.00;9.90;;;8.40;88.50;;;8.86;72.42;96900.03;5051752;28;20464;-73
2023/04/15 07:19:04;;;;;;;11.30;8.27;;;8.50;87.80;;;8.94;70.72;96901.56;5041183;28;20522;-74
2023/04/15 07:21:32;;;;;;;10.53;9.53;;;8.70;85.80;;;8.61;70.59;96855.25;5046651;28;21322;-78
2023/04/15 07:23:59;;;;;;;10.00;8.53;;;8.60;85.30;;;8.97;69.68;96906.47;5060162;28;20987;-76
2023/04/15 07:26:26;;;;;;;10.03;9.03;;;8.70;84.20;;;9.40;68.92;96909.09;5050605;28;20574;-77
2023/04/15 07:28:55;;;;;;;11.53;9.80;;;9.00;84.10;;;9.52;67.79;96901.81;5045951;28;21317;-75
2023/04/15 07:31:23;;;;;;;10.30;8.63;;;9.30;83.20;;;9.51;66.97;96902.88;5048180;28;20477;-76
2023/04/15 07:33:50;;;;;;;9.73;8.07;;;9.30;82.30;;;9.38;67.77;96905.81;5071717;28;20569;-78
2023/04/15 07:36:17;;;;;;;8.90;8.10;;;9.20;82.30;;;9.37;68.08;96904.97;5047125;28;20468;-78
2023/04/15 07:38:44;;;;;;;10.80;9.70;;;9.20;82.30;;;9.71;68.98;96907.91;5047273;28;20540;-77
2023/04/15 07:41:12;;;;;;;9.73;8.73;;;9.30;83.20;;;9.58;68.91;96911.66;5045735;28;20454;-77
2023/04/15 07:43:39;;;;;;;10.03;8.97;;;9.40;82.70;;;9.67;68.68;96904.00;5045365;28;20481;-77
2023/04/15 07:46:07;;;;;;;9.77;8.80;;;9.40;83.10;;;9.51;68.05;96919.06;5047386;28;20948;-74
2023/04/15 07:48:35;;;;;;;10.80;8.40;;;9.50;82.20;;;9.26;69.05;96920.09;5047827;28;20522;-77
2023/04/15 07:51:02;;;;;;;11.53;9.10;;;9.20;82.10;;;9.34;68.65;96917.06;5047131;28;20463;-75
2023/04/15 07:53:30;;;;;;;8.77;7.97;;;9.10;82.60;;;9.30;68.06;96918.56;5054008;28;20466;-78
2023/04/15 07:55:57;;;;;;;6.40;5.70;;;9.20;82.20;;;9.42;67.12;96926.69;5043440;28;20455;-76
2023/04/15 07:58:25;;;;;;;6.37;5.43;;;9.20;81.50;;;9.40;67.47;96920.72;5046682;28;20452;-75
2023/04/15 08:00:53;;;;;;;7.10;6.40;;;9.30;81.60;;;9.17;69.48;96926.88;5043699;28;20488;-77
2023/04/15 08:03:22;;;;;;;6.47;5.87;;;9.10;82.10;;;9.24;67.19;96927.59;5039764;28;20446;-74
2023/04/15 08:05:50;;;;;;;7.83;7.03;;;9.20;81.50;;;8.98;71.19;96913.50;5038093;28;20553;-78
2023/04/15 08:08:17;;;;;;;6.20;5.60;;;9.10;83.50;;;8.77;70.76;96929.19;5043886;28;20464;-77
2023/04/15 08:10:44;;;;;;;6.43;5.83;;;8.90;82.90;;;8.81;71.74;96916.06;5064705;28;20527;-79
2023/04/15 08:13:11;;;;;;;5.67;5.17;;;8.70;83.70;;;8.54;71.13;96919.16;5039046;28;20550;-75
2023/04/15 08:15:39;;;;;;;5.57;5.07;;;8.60;83.40;;;8.50;70.91;96924.16;5031705;28;20462;-77
2023/04/15 08:18:06;;;;;;;5.30;4.80;;;8.40;84.00;;;8.26;71.20;96925.09;5044283;28;20460;-76
2023/04/15 08:20:35;;;;;;;6.43;5.63;;;8.30;83.50;;;8.00;72.51;96925.22;5047120;28;20454;-76
2023/04/15 08:23:02;;;;;;;6.27;5.07;;;8.10;84.40;;;8.16;73.38;96931.84;5054687;28;20522;-76
2023/04/15 08:25:29;;;;;;;7.20;6.47;;;8.10;87.00;;;8.06;74.03;96929.69;5041642;28;20449;-76
2023/04/15 08:27:57;;;;;;;5.00;4.50;;;8.00;88.10;;;7.72;73.11;96929.25;5048704;28;20949;-75
2023/04/15 08:30:24;;;;;;;5.60;5.00;;;7.90;86.20;;;7.65;74.69;96940.06;5038820;28;20457;-75
2023/04/15 08:32:51;;;;;;;5.17;4.70;;;7.70;88.00;;;7.74;75.62;96947.84;5049021;28;20531;-75
2023/04/15 08:35:18;;;;;;;5.93;5.40;;;7.70;90.10;;;7.36;75.75;96914.75;5039229;28;20920;-76
2023/04/15 08:37:47;;;;;;;5.33;4.40;;;7.60;90.40;;;7.50;76.42;96953.03;5038853;28;20571;-72
2023/04/15 08:40:14;;;;;;;3.33;3.03;;;7.60;90.80;;;7.03;74.80;96891.69;5032681;28;20812;-72
2023/04/15 08:42:45;;;;;;;3.23;2.93;;;7.50;89.30;;;7.35;75.89;96946.19;5039868;28;20545;-75
2023/04/15 08:45:12;;;;;;;3.10;2.80;;;7.40;90.20;;;7.43;75.93;96945.06;5041579;28;20468;-76
2023/04/15 08:47:41;;;;;;;2.77;2.53;;;7.40;90.50;;;7.26;76.69;96942.13;5036892;28;20474;-75
2023/04/15 08:50:10;;;;;;;3.80;3.50;;;7.30;90.90;;;7.42;76.02;96951.47;5042644;28;21058;-78
2023/04/15 08:52:38;;;;;;;2.90;2.70;;;7.40;90.50;;;7.27;76.70;96954.50;5045769;28;21172;-68
2023/04/15 08:55:12;;;;;;;2.87;2.67;;;7.30;90.80;;;7.23;77.00;96954.13;5043815;28;20452;-76
2023/04/15 08:57:40;;;;;;;3.10;2.90;;;7.30;90.80;;;7.45;77.14;96958.28;5043175;28;20458;-77
2023/04/15 09:00:09;;;;;;;3.83;3.43;;;7.30;92.10;;;7.53;76.73;96958.00;5039794;28;20458;-74
2023/04/15 09:02:37;;;;;;;3.20;3.00;;;7.40;91.80;;;7.28;76.50;96956.16;5033053;28;20464;-77
2023/04/15 09:05:06;;;;;;;3.70;3.40;;;7.30;90.80;;;7.38;75.47;96958.34;5051801;28;20453;-77
2023/04/15 09:07:35;;;;;;;4.90;3.40;;;7.40;90.50;;;7.65;76.22;96942.75;5044512;28;20544;-78
2023/04/15 09:10:04;;;;;;;5.30;4.73;;;7.50;91.40;;;7.89;76.17;96955.56;5043559;28;20450;-76
2023/04/15 09:12:35;;;;;;;4.90;4.50;;;7.60;91.20;;;7.70;75.94;96954.72;5037963;28;20480;-74
2023/04/15 09:15:03;;;;;;;5.17;4.30;;;7.70;90.40;;;7.59;76.66;96951.72;5057904;28;20446;-78
2023/04/15 09:17:33;;;;;;;7.70;5.23;;;7.60;90.70;;;7.67;77.34;96957.88;5043214;28;20513;-74
2023/04/15 09:20:12;;;;;;;5.20;4.73;;;7.60;91.90;;;7.59;76.83;96943.66;5040404;28;20549;-75
2023/04/15 09:22:41;;;;;;;6.87;5.17;;;7.60;91.60;;;7.60;78.06;96963.31;5039303;28;20468;-73
2023/04/15 09:25:28;;;;;;;5.60;4.80;;;7.60;91.90;;;7.59;78.16;96975.91;5038324;28;20551;-73
2023/04/15 09:27:58;;;;;;;8.80;5.33;;;7.50;92.20;;;7.02;78.24;96911.53;5040167;28;20449;-74
2023/04/15 09:30:27;;;;;;;6.10;5.30;;;7.50;92.20;;;7.50;77.88;96974.53;5040036;28;20461;-74
2023/04/15 09:32:57;;;;;;;4.73;4.33;;;7.60;92.30;;;7.43;77.74;96985.38;5045154;28;20583;-72
2023/04/15 09:35:26;;;;;;;6.30;4.10;;;7.60;91.50;;;7.52;78.59;96988.59;5042518;28;20552;-74
2023/04/15 09:37:54;;;;;;;5.80;5.30;;;7.60;92.30;;;7.65;77.90;96983.09;5034541;28;20691;-74
2023/04/15 09:40:32;;;;;;;5.07;4.00;;;7.70;91.80;;;7.44;77.79;96983.50;5041970;28;20484;-75
2023/04/15 09:43:01;;;;;;;5.10;4.07;;;7.60;91.10;;;7.08;78.49;96922.22;5043133;28;20921;-71
2023/04/15 09:45:29;;;;;;;4.20;3.80;;;7.60;92.10;;;7.33;79.47;96999.28;5032544;28;20874;-73
2023/04/15 09:47:58;;;;;;;4.03;3.27;;;7.40;92.90;;;7.23;78.41;96988.22;5043210;28;20979;-74
2023/04/15 09:50:29;;;;;;;3.73;3.43;;;7.40;92.10;;;7.19;78.26;96985.16;5048527;28;20447;-75
2023/04/15 09:52:58;;;;;;;4.97;4.50;;;7.40;91.70;;;7.04;79.39;96990.84;5040121;28;20475;-77
2023/04/15 09:55:25;;;;;;;3.07;2.77;;;7.20;92.30;;;7.21;79.12;96993.81;5043533;28;20451;-74
2023/04/15 09:57:53;;;;;;;4.37;3.17;;;7.30;92.40;;;7.26;79.83;96990.47;5032365;28;20987;-74
2023/04/15 10:00:22;;;;;;;3.00;2.80;;;7.40;93.20;;;7.43;80.07;96981.88;5039479;28;20571;-74
2023/04/15 10:02:49;;;;;;;4.17;3.77;;;7.50;93.50;;;7.03;79.73;96930.09;5043144;28;20440;-76
2023/04/15 10:05:17;;;;;;;3.80;3.47;;;7.50;93.20;;;6.95;79.91;96919.66;5041183;28;20720;-76
2023/04/15 10:07:47;;;;;;;4.80;4.10;;;7.50;93.20;;;7.40;79.87;96985.81;5043406;28;20830;-78
2023/04/15 10:10:15;;;;;;;5.17;4.67;;;7.50;93.50;;;7.55;81.40;96985.47;5046771;28;21097;-77
2023/04/15 10:12:43;;;;;;;5.20;3.93;;;7.60;95.00;;;7.22;78.28;96994.66;5045604;28;20465;-79
2023/04/15 10:15:16;;;;;;;4.77;4.37;;;7.50;92.20;;;7.08;79.90;97001.97;5044614;28;20461;-77
2023/04/15 10:17:46;;;;;;;4.10;3.27;;;7.30;93.50;;;6.98;79.51;97013.19;5042674;28;20462;-76
2023/04/15 10:20:15;;;;;;;5.60;3.70;;;7.20;92.60;;;6.74;81.27;97004.88;5038564;28;20837;-76
2023/04/15 10:22:43;;;;;;;4.87;4.27;;;7.00;94.40;;;6.88;82.05;97005.63;5034890;28;20516;-77
2023/04/15 10:25:11;;;;;;;6.53;4.57;;;7.00;95.80;;;7.09;80.83;97007.13;5043271;28;20447;-78
2023/04/15 10:27:41;;;;;;;3.30;3.00;;;7.20;94.80;;;7.21;79.87;97009.13;5032104;28;20535;-77
2023/04/15 10:30:10;;;;;;;4.43;4.03;;;7.30;93.20;;;7.35;79.79;97005.28;5041064;28;20461;-77